Time;durP1;ratioP1;P1;durP2;ratioP2;P2;SDS_P1;SDS_P2;PMS_P1;PMS_P2;Temp;Humidity;BMP_temperature;BMP_pressure;BME280_temperature;BME280_humidity;BME280_pressure;Samples;Min_cycle;Max_cycle;Signal;HPM_P1;HPM_P2
2021/11/28 00:00:45;;;;;;;1.60;0.70;;;5.20;59.70;;;;;;5046639;28;20473;-87
2021/11/28 00:03:13;;;;;;;3.03;0.60;;;5.20;60.30;;;;;;5044755;28;20021;-76
2021/11/28 00:05:39;;;;;;;0.80;0.38;;;5.10;59.60;;;;;;5045238;28;20330;-79
2021/11/28 00:14:16;;;;;;;3.03;1.00;;;5.10;59.60;;;;;;5049377;28;20033;-76
2021/11/28 00:16:11;;;;;;;2.08;1.15;;;5.10;59.60;;;;;;5035716;28;20104;-75
2021/11/28 00:18:37;;;;;;;3.80;1.20;;;5.10;59.60;;;;;;5049796;28;20122;-77
2021/11/28 00:21:05;;;;;;;3.40;0.75;;;5.10;59.70;;;;;;5049729;28;20033;-79
2021/11/28 00:23:31;;;;;;;3.88;0.80;;;5.00;59.50;;;;;;5048044;28;20165;-77
2021/11/28 00:25:57;;;;;;;2.42;0.85;;;5.10;59.70;;;;;;5048829;28;20182;-79
2021/11/28 00:28:24;;;;;;;1.90;0.60;;;5.00;59.50;;;;;;5047858;28;20040;-76
2021/11/28 00:30:52;;;;;;;6.03;0.88;;;5.00;60.00;;;;;;5049203;28;20072;-80
2021/11/28 00:33:18;;;;;;;6.10;1.38;;;5.00;59.60;;;;;;5047528;28;20471;-77
2021/11/28 00:35:46;;;;;;;2.53;0.77;;;5.00;59.50;;;;;;5047484;28;20041;-78
2021/11/28 00:38:12;;;;;;;3.00;0.70;;;5.00;59.60;;;;;;5049501;28;20032;-77
2021/11/28 00:40:38;;;;;;;0.98;0.45;;;5.00;59.80;;;;;;5047979;28;20714;-78
2021/11/28 00:43:04;;;;;;;2.13;0.95;;;5.00;59.60;;;;;;5048432;28;20036;-78
2021/11/28 00:45:30;;;;;;;2.33;1.08;;;5.00;59.60;;;;;;5048109;28;20094;-74
2021/11/28 00:47:56;;;;;;;2.38;0.52;;;4.90;59.40;;;;;;5048907;28;20381;-76
2021/11/28 00:52:50;;;;;;;2.50;0.70;;;4.90;59.50;;;;;;5065439;28;20028;-78
2021/11/28 00:55:16;;;;;;;1.92;0.50;;;4.90;59.50;;;;;;5028419;28;20492;-78
2021/11/28 00:57:42;;;;;;;2.25;0.73;;;4.90;59.50;;;;;;5028583;28;20083;-76
2021/11/28 01:00:10;;;;;;;1.48;0.55;;;4.90;59.50;;;;;;5045703;28;20068;-77
2021/11/28 01:02:39;;;;;;;2.17;0.60;;;4.90;59.50;;;;;;5046942;28;20156;-77
2021/11/28 01:05:06;;;;;;;2.70;0.70;;;4.90;59.50;;;;;;5047610;28;20453;-76
2021/11/28 01:07:33;;;;;;;5.47;0.82;;;4.90;59.50;;;;;;5048752;28;20128;-77
2021/11/28 01:09:59;;;;;;;4.13;0.82;;;4.80;59.30;;;;;;5048633;28;20111;-79
2021/11/28 01:12:26;;;;;;;3.28;0.77;;;4.90;59.50;;;;;;5047240;28;20095;-74
2021/11/28 01:14:52;;;;;;;0.98;0.60;;;4.90;59.50;;;;;;5048411;28;20132;-75
2021/11/28 01:17:20;;;;;;;2.10;0.50;;;4.80;59.30;;;;;;5047915;28;20021;-75
2021/11/28 01:19:46;;;;;;;3.38;0.82;;;4.90;59.50;;;;;;5048656;28;20611;-78
2021/11/28 01:22:14;;;;;;;2.38;0.80;;;4.80;59.40;;;;;;5046716;28;20029;-75
2021/11/28 01:24:40;;;;;;;1.77;0.60;;;4.80;59.40;;;;;;5048976;28;20029;-80
2021/11/28 01:27:10;;;;;;;1.70;0.70;;;4.80;59.40;;;;;;5047908;28;20049;-81
2021/11/28 01:29:36;;;;;;;2.17;0.93;;;4.80;59.40;;;;;;5047294;28;20067;-82
2021/11/28 01:32:03;;;;;;;3.05;1.33;;;4.80;59.40;;;;;;5047323;28;20049;-80
2021/11/28 01:34:30;;;;;;;2.28;0.50;;;4.80;59.40;;;;;;5030415;28;20151;-78
2021/11/28 01:36:57;;;;;;;4.50;0.75;;;4.80;59.40;;;;;;5047155;28;20021;-77
2021/11/28 01:39:24;;;;;;;2.45;0.77;;;4.80;59.30;;;;;;5046476;28;20158;-75
2021/11/28 01:41:51;;;;;;;1.77;0.75;;;4.80;59.30;;;;;;5046206;28;20061;-76
2021/11/28 01:44:17;;;;;;;5.10;0.73;;;4.80;59.30;;;;;;5046636;28;20126;-86
2021/11/28 01:46:44;;;;;;;2.33;0.60;;;4.80;59.40;;;;;;5049229;28;20384;-77
2021/11/28 01:49:14;;;;;;;1.90;0.80;;;4.80;59.30;;;;;;5047013;28;20032;-77
2021/11/28 01:51:41;;;;;;;1.65;0.80;;;4.80;59.30;;;;;;5048167;28;20059;-81
2021/11/28 01:54:13;;;;;;;2.83;0.75;;;4.80;59.30;;;;;;5045938;28;20408;-78
2021/11/28 01:56:45;;;;;;;3.10;1.65;;;4.80;59.30;;;;;;5030259;28;20032;-75
2021/11/28 01:59:12;;;;;;;3.43;0.70;;;4.80;59.40;;;;;;5045863;28;20032;-80
2021/11/28 02:01:41;;;;;;;1.35;0.50;;;4.80;59.40;;;;;;5046290;28;20036;-80
2021/11/28 02:04:09;;;;;;;2.15;0.70;;;4.80;59.30;;;;;;5046202;28;20029;-80
2021/11/28 02:06:37;;;;;;;1.58;0.65;;;4.70;59.20;;;;;;5029974;28;20037;-78
2021/11/28 02:09:05;;;;;;;0.93;0.43;;;4.80;59.30;;;;;;5026183;28;20504;-79
2021/11/28 02:11:31;;;;;;;3.55;1.23;;;4.70;59.20;;;;;;5042784;28;20404;-83
2021/11/28 02:13:57;;;;;;;1.55;0.93;;;4.70;59.20;;;;;;5035645;28;20090;-74
2021/11/28 02:16:23;;;;;;;4.13;1.10;;;4.70;59.20;;;;;;5029666;28;20446;-76
2021/11/28 02:18:50;;;;;;;2.30;0.90;;;4.70;59.20;;;;;;5025866;28;20022;-75
2021/11/28 02:21:17;;;;;;;4.80;1.00;;;4.70;59.20;;;;;;5025492;28;20064;-76
2021/11/28 02:23:43;;;;;;;2.58;0.65;;;4.70;59.20;;;;;;5029478;28;20411;-77
2021/11/28 02:26:16;;;;;;;4.88;0.98;;;4.70;59.20;;;;;;5045718;28;20380;-76
2021/11/28 02:28:45;;;;;;;2.83;0.88;;;4.70;59.20;;;;;;5045377;28;20067;-77
2021/11/28 02:31:12;;;;;;;2.55;1.02;;;4.70;59.20;;;;;;5047673;28;20029;-75
2021/11/28 02:33:39;;;;;;;2.80;1.00;;;4.80;59.30;;;;;;5046888;28;20480;-73
2021/11/28 02:36:06;;;;;;;1.80;0.57;;;4.70;59.10;;;;;;5048139;28;20093;-80
2021/11/28 02:38:32;;;;;;;2.13;0.60;;;4.80;59.30;;;;;;5046822;28;20036;-80
2021/11/28 02:41:01;;;;;;;3.03;0.80;;;4.70;59.10;;;;;;5048121;28;20037;-80
2021/11/28 02:43:31;;;;;;;3.30;0.60;;;4.70;59.10;;;;;;5030932;28;20036;-85
2021/11/28 02:46:00;;;;;;;2.83;0.77;;;4.70;59.10;;;;;;5047521;28;20496;-84
2021/11/28 02:48:27;;;;;;;3.20;0.63;;;4.70;59.10;;;;;;5050121;28;20039;-75
2021/11/28 02:50:53;;;;;;;1.80;0.73;;;4.70;59.10;;;;;;5050435;28;20393;-77
2021/11/28 02:53:20;;;;;;;2.83;0.80;;;4.70;59.10;;;;;;5051002;28;20025;-74
2021/11/28 02:55:49;;;;;;;1.13;0.50;;;4.70;59.10;;;;;;5050366;28;20443;-82
2021/11/28 02:58:18;;;;;;;5.30;0.90;;;4.70;59.00;;;;;;5050155;28;20037;-75
2021/11/28 03:00:50;;;;;;;3.17;0.90;;;4.70;59.10;;;;;;5049773;28;20032;-79
2021/11/28 03:03:16;;;;;;;3.70;0.60;;;4.60;58.80;;;;;;5032950;28;20028;-78
2021/11/28 03:05:42;;;;;;;4.97;0.70;;;4.70;59.10;;;;;;5051182;28;20389;-79
2021/11/28 03:08:08;;;;;;;2.40;0.52;;;4.60;58.90;;;;;;5049774;28;20550;-75
2021/11/28 03:10:37;;;;;;;2.60;0.60;;;4.60;58.90;;;;;;5051285;28;20028;-80
2021/11/28 03:13:10;;;;;;;4.50;1.10;;;4.60;58.90;;;;;;5049823;28;20057;-76
2021/11/28 03:15:37;;;;;;;1.42;0.50;;;4.60;58.90;;;;;;5049520;28;20049;-75
2021/11/28 03:18:13;;;;;;;1.65;1.05;;;4.60;58.90;;;;;;5049136;28;20125;-77
2021/11/28 03:20:40;;;;;;;1.45;0.65;;;4.60;58.90;;;;;;5066476;28;20476;-77
2021/11/28 03:23:07;;;;;;;1.67;0.82;;;4.60;58.90;;;;;;5051012;28;20059;-76
2021/11/28 03:25:33;;;;;;;1.08;0.43;;;4.60;58.90;;;;;;5050215;28;20090;-83
2021/11/28 03:28:01;;;;;;;2.72;0.73;;;4.60;58.90;;;;;;5049488;28;20086;-79
2021/11/28 03:30:27;;;;;;;1.92;1.02;;;4.60;58.90;;;;;;5050669;28;20021;-79
2021/11/28 03:33:22;;;;;;;2.03;0.60;;;4.60;58.90;;;;;;5049323;28;20133;-76
2021/11/28 03:36:09;;;;;;;4.43;0.73;;;4.50;58.70;;;;;;5035622;28;20107;-77
2021/11/28 03:38:37;;;;;;;2.45;0.40;;;4.50;58.70;;;;;;5032898;28;20036;-77
2021/11/28 03:41:04;;;;;;;0.90;0.50;;;4.50;58.70;;;;;;5049261;28;20259;-76
2021/11/28 03:43:33;;;;;;;1.85;0.52;;;4.50;59.30;;;;;;5049249;28;20029;-78
2021/11/28 03:45:59;;;;;;;3.70;1.08;;;4.50;58.70;;;;;;5069676;28;20068;-78
2021/11/28 03:48:25;;;;;;;1.52;0.40;;;4.50;58.70;;;;;;5070248;28;20057;-78
2021/11/28 03:50:52;;;;;;;0.75;0.30;;;4.50;58.70;;;;;;5069594;28;20213;-81
2021/11/28 03:53:20;;;;;;;1.48;1.02;;;4.50;58.70;;;;;;5053352;28;20025;-76
2021/11/28 03:55:48;;;;;;;1.48;0.40;;;4.50;58.70;;;;;;5070003;28;20044;-75
2021/11/28 03:58:14;;;;;;;3.47;0.60;;;4.50;58.70;;;;;;5036846;28;20029;-78
2021/11/28 04:00:40;;;;;;;2.95;0.80;;;4.50;58.70;;;;;;5052922;28;20035;-77
2021/11/28 04:03:11;;;;;;;0.68;0.43;;;4.50;58.70;;;;;;5053084;28;20035;-76
2021/11/28 04:05:40;;;;;;;1.67;0.60;;;4.50;58.70;;;;;;5052953;28;20029;-76
2021/11/28 04:08:06;;;;;;;2.47;1.27;;;4.40;58.50;;;;;;5053221;28;20029;-77
2021/11/28 04:10:33;;;;;;;2.05;0.60;;;4.40;58.50;;;;;;5052919;28;20111;-78
2021/11/28 04:12:59;;;;;;;0.95;0.47;;;4.40;58.50;;;;;;5069554;28;20035;-78
2021/11/28 04:15:25;;;;;;;3.60;0.70;;;4.50;58.70;;;;;;5053880;28;20394;-75
2021/11/28 04:18:05;;;;;;;1.17;0.70;;;4.40;58.50;;;;;;5069595;28;20036;-79
2021/11/28 04:20:33;;;;;;;2.33;0.65;;;4.40;58.50;;;;;;5070188;28;20463;-78
2021/11/28 04:23:01;;;;;;;1.30;0.60;;;4.40;58.50;;;;;;5054445;28;20468;-77
2021/11/28 04:25:28;;;;;;;2.33;0.50;;;4.40;58.50;;;;;;5053830;28;20032;-83
2021/11/28 04:27:54;;;;;;;1.73;0.63;;;4.40;58.50;;;;;;5054649;28;20025;-77
2021/11/28 04:30:21;;;;;;;1.65;0.50;;;4.40;58.50;;;;;;5053021;28;20114;-82
2021/11/28 04:32:47;;;;;;;3.28;0.82;;;4.40;58.50;;;;;;5053504;28;20404;-75
2021/11/28 04:35:14;;;;;;;3.47;0.70;;;4.40;58.50;;;;;;5070050;28;20272;-79
2021/11/28 04:37:40;;;;;;;1.60;0.80;;;4.40;58.50;;;;;;5054893;28;20026;-82
2021/11/28 04:40:08;;;;;;;2.13;0.63;;;4.30;58.30;;;;;;5070396;28;20136;-80
2021/11/28 04:42:37;;;;;;;2.85;0.50;;;4.30;58.30;;;;;;5036190;28;20472;-86
2021/11/28 04:45:05;;;;;;;2.55;0.60;;;4.30;58.30;;;;;;5054278;28;20032;-76
2021/11/28 04:47:31;;;;;;;1.98;0.68;;;4.30;58.40;;;;;;5035799;28;20434;-79
2021/11/28 04:50:09;;;;;;;7.95;0.80;;;4.30;58.40;;;;;;5052759;28;20025;-77
2021/11/28 04:52:35;;;;;;;2.83;0.93;;;4.30;58.40;;;;;;5054545;28;20040;-81
2021/11/28 04:55:03;;;;;;;2.13;0.85;;;4.30;58.40;;;;;;5036420;28;20090;-76
2021/11/28 04:57:31;;;;;;;2.55;0.80;;;4.20;58.20;;;;;;5068981;28;20032;-77
2021/11/28 04:59:57;;;;;;;1.77;0.52;;;4.20;58.20;;;;;;5054584;28;20463;-76
2021/11/28 05:02:23;;;;;;;2.17;0.65;;;4.20;58.20;;;;;;5035716;28;20268;-75
2021/11/28 05:04:49;;;;;;;3.72;0.90;;;4.20;58.20;;;;;;5069497;28;20040;-75
2021/11/28 05:07:15;;;;;;;1.00;0.50;;;4.20;58.20;;;;;;5052251;28;20128;-77
2021/11/28 05:09:50;;;;;;;2.58;0.57;;;4.20;58.20;;;;;;5052052;28;20076;-82
2021/11/28 05:12:16;;;;;;;1.70;0.40;;;4.20;58.30;;;;;;5052283;28;20040;-79
2021/11/28 05:14:43;;;;;;;1.52;0.60;;;4.20;58.30;;;;;;5052242;28;20405;-80
2021/11/28 05:17:10;;;;;;;3.40;0.85;;;4.10;58.10;;;;;;5051273;28;20025;-75
2021/11/28 05:19:40;;;;;;;3.45;0.70;;;4.20;58.30;;;;;;5051911;28;20129;-76
2021/11/28 05:22:29;;;;;;;2.53;0.80;;;4.20;58.30;;;;;;5052732;28;20098;-77
2021/11/28 05:25:00;;;;;;;2.67;0.40;;;4.10;58.10;;;;;;5053003;28;20033;-87
2021/11/28 05:27:28;;;;;;;3.38;0.80;;;4.10;58.10;;;;;;5052569;28;20098;-81
2021/11/28 05:29:55;;;;;;;1.30;0.98;;;4.10;58.20;;;;;;5053438;28;20033;-79
2021/11/28 05:32:22;;;;;;;4.13;0.77;;;4.10;58.20;;;;;;5052432;28;20037;-77
2021/11/28 05:34:54;;;;;;;2.70;0.65;;;4.10;58.20;;;;;;5053248;28;20477;-77
2021/11/28 05:37:26;;;;;;;1.55;0.52;;;4.10;58.30;;;;;;5052676;28;20064;-76
2021/11/28 05:40:00;;;;;;;2.45;0.60;;;4.10;58.20;;;;;;5051343;28;20025;-75
2021/11/28 05:42:26;;;;;;;1.40;0.47;;;4.10;58.30;;;;;;5051254;28;20067;-77
2021/11/28 05:44:52;;;;;;;2.88;0.98;;;4.10;58.20;;;;;;5051522;28;20032;-80
2021/11/28 05:47:37;;;;;;;1.75;0.47;;;4.10;58.20;;;;;;5047072;28;20504;-76
2021/11/28 05:50:09;;;;;;;2.38;0.57;;;4.20;58.50;;;;;;5027424;28;20124;-78
2021/11/28 05:52:44;;;;;;;1.13;0.63;;;4.10;58.20;;;;;;5027983;28;20029;-76
2021/11/28 05:55:11;;;;;;;0.88;0.43;;;4.20;58.40;;;;;;5028810;28;20366;-79
2021/11/28 05:57:37;;;;;;;3.80;0.50;;;4.20;58.40;;;;;;5030457;28;20029;-77
2021/11/28 06:00:06;;;;;;;1.05;0.45;;;4.20;58.40;;;;;;5047633;28;20037;-77
2021/11/28 06:02:51;;;;;;;3.80;0.60;;;4.20;58.40;;;;;;5046724;28;20062;-79
2021/11/28 06:05:43;;;;;;;1.42;0.30;;;4.20;58.30;;;;;;5027221;28;20029;-80
2021/11/28 06:08:15;;;;;;;2.53;0.73;;;4.20;58.30;;;;;;5046554;28;20392;-76
2021/11/28 06:10:44;;;;;;;2.92;0.47;;;4.20;58.30;;;;;;5045737;28;20460;-75
2021/11/28 06:13:10;;;;;;;3.47;0.73;;;4.30;58.50;;;;;;5045443;28;20033;-80
2021/11/28 06:15:38;;;;;;;1.30;0.52;;;4.30;58.40;;;;;;5046917;28;20033;-75
2021/11/28 06:18:23;;;;;;;0.95;0.30;;;4.30;58.40;;;;;;5048763;28;20431;-76
2021/11/28 06:21:24;;;;;;;1.77;0.40;;;4.30;58.40;;;;;;5047637;28;20036;-77
2021/11/28 06:24:06;;;;;;;4.22;0.47;;;4.30;58.30;;;;;;5025366;28;20041;-76
2021/11/28 06:26:32;;;;;;;3.22;0.88;;;4.30;58.30;;;;;;5042781;28;20033;-76
2021/11/28 06:28:59;;;;;;;3.45;1.50;;;4.30;58.20;;;;;;5045678;28;20132;-75
2021/11/28 06:31:25;;;;;;;3.08;0.70;;;4.30;58.30;;;;;;5047013;28;20061;-75
2021/11/28 06:34:09;;;;;;;0.93;0.40;;;4.30;58.20;;;;;;5046635;28;20044;-75
2021/11/28 06:36:54;;;;;;;2.15;0.52;;;4.40;58.40;;;;;;5047103;28;20550;-79
2021/11/28 06:39:49;;;;;;;0.68;0.50;;;4.30;58.20;;;;;;5026553;28;20080;-79
2021/11/28 06:42:39;;;;;;;0.98;0.63;;;4.40;58.40;;;;;;5040731;28;20123;-75
2021/11/28 06:45:06;;;;;;;2.05;0.40;;;4.30;58.20;;;;;;5045163;28;20233;-74
2021/11/28 06:47:33;;;;;;;2.53;0.40;;;4.30;58.20;;;;;;5047567;28;20078;-76
2021/11/28 06:49:59;;;;;;;2.95;0.52;;;4.30;58.20;;;;;;5045216;28;20036;-74
2021/11/28 06:52:47;;;;;;;2.75;0.40;;;4.30;58.20;;;;;;5045998;28;20028;-76
2021/11/28 06:55:29;;;;;;;3.20;0.52;;;4.30;58.20;;;;;;5045754;28;20415;-76
2021/11/28 06:58:32;;;;;;;2.63;0.50;;;4.30;58.20;;;;;;5044618;28;20033;-75
2021/11/28 07:01:01;;;;;;;0.60;0.40;;;4.30;58.10;;;;;;5044760;28;20032;-77
2021/11/28 07:03:27;;;;;;;2.65;0.40;;;4.30;58.20;;;;;;5044970;28;20082;-77
2021/11/28 07:06:31;;;;;;;3.25;0.50;;;4.30;58.20;;;;;;5046213;28;20040;-80
2021/11/28 07:08:58;;;;;;;1.48;0.55;;;4.30;58.20;;;;;;5045208;28;20110;-76
2021/11/28 07:11:24;;;;;;;2.20;0.50;;;4.30;58.20;;;;;;5029006;28;20061;-83
2021/11/28 07:13:51;;;;;;;7.10;1.35;;;4.30;58.20;;;;;;5044899;28;20032;-81
2021/11/28 07:16:17;;;;;;;3.47;0.65;;;4.30;58.20;;;;;;5028247;28;20039;-84
2021/11/28 07:18:45;;;;;;;1.08;0.52;;;4.30;58.10;;;;;;5044837;28;20469;-76
2021/11/28 07:21:12;;;;;;;2.38;0.55;;;4.30;58.10;;;;;;5045871;28;20033;-78
2021/11/28 07:23:45;;;;;;;2.08;0.63;;;4.30;58.10;;;;;;5044683;28;20495;-78
2021/11/28 07:26:13;;;;;;;3.60;0.60;;;4.30;58.20;;;;;;5044789;28;20466;-81
2021/11/28 07:28:47;;;;;;;3.22;0.35;;;4.30;58.30;;;;;;5024594;28;20026;-76
2021/11/28 07:31:15;;;;;;;2.78;0.80;;;4.30;58.50;;;;;;5023863;28;20579;-87
2021/11/28 07:33:56;;;;;;;3.03;0.80;;;4.40;58.70;;;;;;5045822;28;20128;-84
2021/11/28 07:36:34;;;;;;;4.20;0.90;;;4.40;58.90;;;;;;5045964;28;20033;-76
2021/11/28 07:39:03;;;;;;;2.10;0.98;;;4.40;59.10;;;;;;5050913;28;20025;-84
2021/11/28 07:41:31;;;;;;;1.50;0.60;;;4.50;59.40;;;;;;5059613;28;20167;-84
2021/11/28 07:44:17;;;;;;;1.45;0.40;;;4.50;59.40;;;;;;5027123;28;20418;-91
2021/11/28 07:47:02;;;;;;;3.75;0.70;;;4.50;59.30;;;;;;5026452;28;20079;-82
2021/11/28 07:49:34;;;;;;;0.95;0.60;;;4.50;59.30;;;;;;5024989;28;20187;-76
2021/11/28 07:52:13;;;;;;;1.95;0.70;;;4.50;59.20;;;;;;5027453;28;20075;-81
2021/11/28 07:54:39;;;;;;;2.88;0.60;;;4.50;59.20;;;;;;5028286;28;20041;-84
2021/11/28 07:57:05;;;;;;;2.70;0.63;;;4.50;59.20;;;;;;5044327;28;20021;-75
2021/11/28 07:59:50;;;;;;;2.85;0.75;;;4.50;59.20;;;;;;5045811;28;20467;-75
2021/11/28 08:02:18;;;;;;;2.55;0.60;;;4.50;59.20;;;;;;5027361;28;20056;-76
2021/11/28 08:04:46;;;;;;;3.65;0.90;;;4.50;59.20;;;;;;5045161;28;20120;-77
2021/11/28 08:07:30;;;;;;;1.58;0.52;;;4.50;59.20;;;;;;5045792;28;20052;-81
2021/11/28 08:10:15;;;;;;;3.13;0.80;;;4.50;59.20;;;;;;5045979;28;20116;-77
2021/11/28 08:12:41;;;;;;;2.58;0.50;;;4.50;59.20;;;;;;5061446;28;20029;-77
2021/11/28 08:15:12;;;;;;;4.10;0.90;;;4.50;59.10;;;;;;5027678;28;20090;-77
2021/11/28 08:17:38;;;;;;;3.70;0.68;;;4.50;59.00;;;;;;5043267;28;20025;-76
2021/11/28 08:20:07;;;;;;;2.30;0.50;;;4.40;58.80;;;;;;5038313;28;20061;-74
2021/11/28 08:22:33;;;;;;;1.70;0.60;;;4.40;58.80;;;;;;5043920;28;20025;-77
2021/11/28 08:24:59;;;;;;;3.20;0.43;;;4.50;58.90;;;;;;5045190;28;20084;-78
2021/11/28 08:27:26;;;;;;;1.40;0.52;;;4.50;58.80;;;;;;5027215;28;20094;-76
2021/11/28 08:29:53;;;;;;;4.30;0.77;;;4.50;58.70;;;;;;5043380;28;20025;-76
2021/11/28 08:32:26;;;;;;;2.70;0.70;;;4.50;58.70;;;;;;5047105;28;20068;-76
2021/11/28 08:34:52;;;;;;;2.72;0.45;;;4.50;58.60;;;;;;5048267;28;20037;-79
2021/11/28 08:37:24;;;;;;;2.10;0.60;;;4.50;58.50;;;;;;5048328;28;20029;-77
2021/11/28 08:39:50;;;;;;;3.08;0.70;;;4.50;58.50;;;;;;5047260;28;20455;-76
2021/11/28 08:42:16;;;;;;;3.03;0.80;;;4.50;58.50;;;;;;5047814;28;20296;-75
2021/11/28 08:44:42;;;;;;;1.75;0.85;;;4.50;58.40;;;;;;5047247;28;20021;-75
2021/11/28 08:47:08;;;;;;;2.58;0.82;;;4.50;58.40;;;;;;5048107;28;20074;-77
2021/11/28 08:49:37;;;;;;;2.47;0.50;;;4.50;58.40;;;;;;5046590;28;20116;-74
2021/11/28 08:52:03;;;;;;;2.00;0.40;;;4.50;58.40;;;;;;5046584;28;20119;-78
2021/11/28 08:54:30;;;;;;;2.75;0.95;;;4.50;58.40;;;;;;5047055;28;20626;-75
2021/11/28 08:56:58;;;;;;;5.88;1.95;;;4.40;58.20;;;;;;5048173;28;20037;-77
2021/11/28 08:59:26;;;;;;;4.22;1.30;;;4.40;58.10;;;;;;5048685;28;20025;-79
2021/11/28 09:01:53;;;;;;;4.00;1.77;;;4.50;58.50;;;;;;5030479;28;20472;-85
2021/11/28 09:04:19;;;;;;;2.75;1.15;;;4.50;58.80;;;;;;5046929;28;20035;-77
2021/11/28 09:06:45;;;;;;;1.73;0.88;;;4.50;58.80;;;;;;5046892;28;20555;-76
2021/11/28 09:09:11;;;;;;;2.95;1.00;;;4.50;58.80;;;;;;5046842;28;20025;-74
2021/11/28 09:11:37;;;;;;;3.00;1.45;;;4.50;58.80;;;;;;5046808;28;20033;-78
2021/11/28 09:14:04;;;;;;;3.05;1.38;;;4.50;58.70;;;;;;5047927;28;20040;-75
2021/11/28 09:16:31;;;;;;;3.40;1.40;;;4.50;58.70;;;;;;5047913;28;20392;-80
2021/11/28 09:19:02;;;;;;;4.28;1.75;;;4.50;58.70;;;;;;5047900;28;20025;-77
2021/11/28 09:21:28;;;;;;;3.65;1.52;;;4.50;58.70;;;;;;5046729;28;20127;-78
2021/11/28 09:26:42;;;;;;;4.28;1.85;;;4.50;58.70;;;;;;5047691;28;20073;-78
2021/11/28 09:29:08;;;;;;;6.50;2.08;;;4.50;58.60;;;;;;5046467;28;20029;-78
2021/11/28 09:31:34;;;;;;;4.18;2.20;;;4.50;58.60;;;;;;5036773;28;20076;-77
2021/11/28 09:34:02;;;;;;;3.60;1.50;;;4.50;58.60;;;;;;5039472;28;20069;-77
2021/11/28 09:36:29;;;;;;;4.97;2.03;;;4.50;58.60;;;;;;5042567;28;20128;-76
2021/11/28 09:38:55;;;;;;;5.15;2.00;;;4.50;58.60;;;;;;5047820;28;20821;-80
2021/11/28 09:41:24;;;;;;;4.35;1.75;;;4.50;58.60;;;;;;5050373;28;20059;-76
2021/11/28 09:43:54;;;;;;;4.63;2.30;;;4.50;58.60;;;;;;5051380;28;20025;-83
2021/11/28 09:46:23;;;;;;;4.75;2.38;;;4.50;58.60;;;;;;5049198;28;20087;-81
2021/11/28 09:48:57;;;;;;;4.95;1.90;;;4.40;58.40;;;;;;5046449;28;20033;-82
2021/11/28 09:51:24;;;;;;;2.72;1.88;;;4.40;58.40;;;;;;5030213;28;20032;-77
2021/11/28 09:53:50;;;;;;;3.50;1.70;;;4.40;58.40;;;;;;5047378;28;20438;-76
2021/11/28 09:56:17;;;;;;;8.82;2.30;;;4.40;58.40;;;;;;5045917;28;20033;-76
2021/11/28 09:58:44;;;;;;;6.35;1.70;;;4.40;58.40;;;;;;5046276;28;20060;-79
2021/11/28 10:01:11;;;;;;;2.72;1.75;;;4.40;58.40;;;;;;5046231;28;20451;-79
2021/11/28 10:03:37;;;;;;;7.85;2.00;;;4.40;58.40;;;;;;5046443;28;20021;-82
2021/11/28 10:06:04;;;;;;;4.03;1.70;;;4.40;58.40;;;;;;5063017;28;20453;-79
2021/11/28 10:08:30;;;;;;;5.15;1.60;;;4.40;58.40;;;;;;5046507;28;20120;-79
2021/11/28 10:11:02;;;;;;;3.83;1.70;;;4.40;58.40;;;;;;5046808;28;20419;-75
2021/11/28 10:13:28;;;;;;;3.05;2.03;;;4.40;58.40;;;;;;5047000;28;20036;-81
2021/11/28 10:15:54;;;;;;;2.55;1.55;;;4.50;58.60;;;;;;5046762;28;20439;-81
2021/11/28 10:18:20;;;;;;;4.00;1.60;;;4.50;58.60;;;;;;5046726;28;20029;-83
2021/11/28 10:20:47;;;;;;;7.85;2.15;;;4.50;58.50;;;;;;5045747;28;20036;-76
2021/11/28 10:23:13;;;;;;;6.05;1.80;;;4.50;58.50;;;;;;5046635;28;20047;-82
2021/11/28 10:25:39;;;;;;;3.22;1.63;;;4.50;58.50;;;;;;5047238;28;20032;-76
2021/11/28 10:28:09;;;;;;;4.45;1.88;;;4.60;58.70;;;;;;5039083;28;20500;-75
2021/11/28 10:30:38;;;;;;;3.78;1.50;;;4.60;58.60;;;;;;5047181;28;20028;-78
2021/11/28 10:33:16;;;;;;;4.18;1.30;;;4.60;58.60;;;;;;5045961;28;20053;-83
2021/11/28 10:36:02;;;;;;;3.17;1.80;;;4.60;58.60;;;;;;5046999;28;20057;-77
2021/11/28 10:38:40;;;;;;;4.43;1.38;;;4.60;58.50;;;;;;5046288;28;20128;-78
2021/11/28 10:41:24;;;;;;;4.30;1.25;;;4.70;58.70;;;;;;5042887;28;20047;-75
2021/11/28 10:43:51;;;;;;;3.97;1.98;;;4.70;58.70;;;;;;5037650;28;20496;-78
2021/11/28 10:46:30;;;;;;;3.17;1.98;;;4.70;58.60;;;;;;5041710;28;20074;-78
2021/11/28 10:49:21;;;;;;;2.72;1.15;;;4.70;58.50;;;;;;5038930;28;20494;-80
2021/11/28 10:51:51;;;;;;;1.73;1.15;;;4.80;58.70;;;;;;5045550;28;20108;-84
2021/11/28 10:54:22;;;;;;;2.13;1.17;;;4.80;58.70;;;;;;5044467;28;20116;-80
2021/11/28 10:56:59;;;;;;;2.05;1.23;;;4.90;58.80;;;;;;5045718;28;20033;-85
2021/11/28 10:59:25;;;;;;;3.75;1.25;;;4.80;58.60;;;;;;5046503;28;20029;-78
2021/11/28 11:01:51;;;;;;;2.25;1.20;;;4.90;58.70;;;;;;5046650;28;20082;-78
2021/11/28 11:04:21;;;;;;;4.78;1.27;;;5.00;58.90;;;;;;5044261;28;20578;-77
2021/11/28 11:07:09;;;;;;;5.22;1.05;;;5.00;58.80;;;;;;5046477;28;20032;-81
2021/11/28 11:09:45;;;;;;;2.58;1.05;;;5.10;59.00;;;;;;5046137;28;20049;-76
2021/11/28 11:12:21;;;;;;;2.83;1.58;;;5.10;58.80;;;;;;5045953;28;20091;-75
2021/11/28 11:14:49;;;;;;;1.35;0.80;;;5.10;58.80;;;;;;5044833;28;20104;-80
2021/11/28 11:17:15;;;;;;;3.05;1.02;;;5.20;58.90;;;;;;5045123;28;20033;-79
2021/11/28 11:19:50;;;;;;;2.75;1.20;;;5.20;58.90;;;;;;5046200;28;20127;-84
2021/11/28 11:22:19;;;;;;;2.28;1.25;;;5.20;58.80;;;;;;5045911;28;20037;-76
2021/11/28 11:25:08;;;;;;;2.58;1.10;;;5.30;59.00;;;;;;5046218;28;20396;-82
2021/11/28 11:27:43;;;;;;;4.90;1.02;;;5.30;58.80;;;;;;5045199;28;20480;-75
2021/11/28 11:30:14;;;;;;;2.70;1.15;;;5.30;58.70;;;;;;5044313;28;20025;-76
2021/11/28 11:32:50;;;;;;;1.60;0.73;;;5.40;58.90;;;;;;5044233;28;20045;-80
2021/11/28 11:35:26;;;;;;;1.95;0.90;;;5.40;58.80;;;;;;5044476;28;20037;-82
2021/11/28 11:37:58;;;;;;;3.00;1.15;;;5.40;58.70;;;;;;5045994;28;20052;-85
2021/11/28 11:40:25;;;;;;;4.55;1.38;;;5.50;58.90;;;;;;5046552;28;20135;-83
2021/11/28 11:42:52;;;;;;;1.60;0.90;;;5.50;58.80;;;;;;5025417;28;20033;-84
2021/11/28 11:45:24;;;;;;;1.63;0.75;;;5.60;58.90;;;;;;5025353;28;20044;-79
2021/11/28 11:47:50;;;;;;;1.98;0.90;;;5.60;58.80;;;;;;5034964;28;20455;-84
2021/11/28 11:50:20;;;;;;;2.95;1.17;;;5.60;58.70;;;;;;5051753;28;20081;-76
2021/11/28 11:52:48;;;;;;;1.40;0.90;;;5.70;58.90;;;;;;5053365;28;20109;-75
2021/11/28 11:55:17;;;;;;;2.00;0.90;;;5.70;58.80;;;;;;5024326;28;20038;-76
2021/11/28 11:57:55;;;;;;;1.30;0.70;;;5.70;58.70;;;;;;5007850;28;20029;-78
2021/11/28 12:00:29;;;;;;;2.50;0.77;;;5.70;58.60;;;;;;5024271;28;20160;-79
2021/11/28 12:02:56;;;;;;;1.20;0.80;;;5.80;58.70;;;;;;5024204;28;20044;-81
2021/11/28 12:05:31;;;;;;;3.17;0.90;;;5.90;58.80;;;;;;5009235;28;20186;-81
2021/11/28 12:08:13;;;;;;;1.42;0.85;;;5.90;58.70;;;;;;5028011;28;20028;-75
2021/11/28 12:10:40;;;;;;;2.45;1.10;;;5.90;58.60;;;;;;5028230;28;20033;-77
2021/11/28 12:13:25;;;;;;;2.78;0.70;;;6.00;58.80;;;;;;5028235;28;20112;-79
2021/11/28 12:15:53;;;;;;;1.83;0.90;;;6.00;58.60;;;;;;5027623;28;20046;-83
2021/11/28 12:18:34;;;;;;;2.60;0.90;;;6.00;58.60;;;;;;5028891;28;20056;-81
2021/11/28 12:21:05;;;;;;;2.05;1.15;;;6.00;58.50;;;;;;5028061;28;20045;-77
2021/11/28 12:23:49;;;;;;;2.03;0.90;;;6.10;58.70;;;;;;5039797;28;20419;-80
2021/11/28 12:26:28;;;;;;;6.05;1.48;;;6.10;58.60;;;;;;5047375;28;20349;-76
2021/11/28 12:28:55;;;;;;;3.30;1.17;;;6.10;58.40;;;;;;5049018;28;20036;-76
2021/11/28 12:31:51;;;;;;;5.65;0.63;;;6.20;59.10;;;;;;5048432;28;20052;-84
2021/11/28 12:34:25;;;;;;;2.60;0.80;;;6.20;58.50;;;;;;5042415;28;20057;-77
2021/11/28 12:36:51;;;;;;;1.08;0.80;;;6.20;58.40;;;;;;5048820;28;20032;-78
2021/11/28 12:39:21;;;;;;;1.55;0.75;;;6.30;58.50;;;;;;5046521;28;20037;-80
2021/11/28 12:41:48;;;;;;;0.95;0.60;;;6.30;58.50;;;;;;5047780;28;20037;-75
2021/11/28 12:44:22;;;;;;;2.97;0.80;;;6.30;58.40;;;;;;5048631;28;20071;-75
2021/11/28 12:47:00;;;;;;;2.63;0.70;;;6.40;58.40;;;;;;5049094;28;20064;-78
2021/11/28 12:49:32;;;;;;;1.92;1.13;;;6.40;58.30;;;;;;5026746;28;20042;-75
2021/11/28 12:52:26;;;;;;;2.67;1.20;;;6.50;58.50;;;;;;5028267;28;20103;-75
2021/11/28 12:57:48;;;;;;;2.30;0.93;;;6.50;58.60;;;;;;5028078;28;20124;-76
2021/11/28 13:00:23;;;;;;;2.75;1.20;;;6.60;58.70;;;;;;5028290;28;20064;-79
2021/11/28 13:02:50;;;;;;;2.13;1.40;;;6.70;58.80;;;;;;5034161;28;20033;-75
2021/11/28 13:05:36;;;;;;;3.17;1.25;;;6.70;58.70;;;;;;5046853;28;20021;-74
2021/11/28 13:08:02;;;;;;;2.15;1.10;;;6.80;58.80;;;;;;5048037;28;20025;-74
2021/11/28 13:10:37;;;;;;;2.13;0.80;;;6.90;58.90;;;;;;5048018;28;20028;-74
2021/11/28 13:13:16;;;;;;;1.40;0.73;;;7.00;59.00;;;;;;5048352;28;20037;-76
2021/11/28 13:16:08;;;;;;;2.67;1.00;;;7.00;58.80;;;;;;5047210;28;20043;-74
2021/11/28 13:18:37;;;;;;;2.75;0.90;;;7.10;58.80;;;;;;5046865;28;20047;-73
2021/11/28 13:21:11;;;;;;;2.83;1.00;;;7.20;58.90;;;;;;5048770;28;20416;-74
2021/11/28 13:23:58;;;;;;;1.77;0.60;;;7.20;58.70;;;;;;5048029;28;20032;-75
2021/11/28 13:26:52;;;;;;;3.83;0.90;;;7.30;58.70;;;;;;5046356;28;20060;-76
2021/11/28 13:29:18;;;;;;;2.95;1.00;;;7.40;58.70;;;;;;5047917;28;20075;-78